Time;durP1;ratioP1;P1;durP2;ratioP2;P2;SDS_P1;SDS_P2;PMS_P1;PMS_P2;Temp;Humidity;BMP_temperature;BMP_pressure;BME280_temperature;BME280_humidity;BME280_pressure;Samples;Min_cycle;Max_cycle;Signal;HPM_P1;HPM_P2
2023/09/02 00:01:34;;;;;;;3.85;3.08;;;18.50;99.90;;;;;;4173659;28;20396;-66
2023/09/02 00:03:35;;;;;;;5.18;3.22;;;18.50;99.90;;;;;;4177038;28;20041;-66
2023/09/02 00:05:35;;;;;;;4.38;3.28;;;18.50;99.90;;;;;;4175459;28;20910;-62
2023/09/02 00:07:36;;;;;;;5.25;3.00;;;18.50;99.90;;;;;;4176879;28;20037;-68
2023/09/02 00:09:36;;;;;;;5.18;3.17;;;18.50;99.90;;;;;;4176975;28;20083;-68
2023/09/02 00:11:37;;;;;;;3.17;2.72;;;18.50;99.90;;;;;;4174338;28;20095;-68
2023/09/02 00:13:38;;;;;;;3.47;2.55;;;18.50;99.90;;;;;;4173334;28;20056;-68
2023/09/02 00:15:41;;;;;;;4.90;2.97;;;18.50;99.90;;;;;;4174145;28;20036;-68
2023/09/02 00:17:41;;;;;;;4.85;2.90;;;18.50;99.90;;;;;;4175781;28;20036;-68
2023/09/02 00:19:43;;;;;;;4.90;2.83;;;18.50;99.90;;;;;;4170948;28;20033;-68
2023/09/02 00:21:43;;;;;;;5.18;2.95;;;18.50;99.90;;;;;;4172305;28;20776;-68
2023/09/02 00:23:47;;;;;;;3.05;2.60;;;18.50;99.90;;;;;;4174631;28;20116;-69
2023/09/02 00:25:48;;;;;;;4.70;2.72;;;18.50;99.90;;;;;;4175834;28;20120;-68
2023/09/02 00:27:48;;;;;;;5.53;3.05;;;18.50;99.90;;;;;;4177065;28;20048;-68
2023/09/02 00:29:49;;;;;;;5.43;3.47;;;18.50;99.90;;;;;;4172667;28;20720;-68
2023/09/02 00:31:50;;;;;;;3.95;2.60;;;18.50;99.90;;;;;;4171427;28;20052;-68
2023/09/02 00:33:50;;;;;;;6.90;3.50;;;18.50;99.90;;;;;;4174474;28;20037;-68
2023/09/02 00:35:51;;;;;;;5.80;2.47;;;18.50;99.90;;;;;;4173877;28;20787;-68
2023/09/02 00:37:52;;;;;;;3.47;2.42;;;18.50;99.90;;;;;;4171468;28;20030;-68
2023/09/02 00:39:53;;;;;;;4.35;2.85;;;18.50;99.90;;;;;;4172152;28;20033;-68
2023/09/02 00:41:56;;;;;;;3.53;2.88;;;18.50;99.90;;;;;;4174726;28;20421;-68
2023/09/02 00:43:58;;;;;;;3.28;2.50;;;18.50;99.90;;;;;;4175548;28;20041;-68
2023/09/02 00:45:59;;;;;;;2.83;2.50;;;18.60;99.90;;;;;;4174463;28;20072;-68
2023/09/02 00:48:00;;;;;;;3.10;2.50;;;18.60;99.90;;;;;;4174544;28;20290;-68
2023/09/02 00:50:02;;;;;;;4.50;3.13;;;18.60;99.90;;;;;;4176122;28;20063;-68
2023/09/02 00:52:02;;;;;;;3.42;2.55;;;18.60;99.90;;;;;;4174821;28;20036;-67
2023/09/02 00:54:03;;;;;;;3.72;2.45;;;18.60;99.90;;;;;;4174503;28;20038;-68
2023/09/02 00:56:04;;;;;;;3.10;2.50;;;18.70;99.90;;;;;;4170669;28;20041;-68
2023/09/02 00:58:06;;;;;;;3.03;2.03;;;18.70;99.90;;;;;;4172556;28;20048;-68
2023/09/02 01:00:08;;;;;;;3.30;2.40;;;18.70;99.90;;;;;;4176410;28;20456;-68
2023/09/02 01:02:11;;;;;;;4.03;2.72;;;18.70;99.90;;;;;;4173910;28;20263;-68
2023/09/02 01:04:11;;;;;;;2.38;2.08;;;18.70;99.90;;;;;;4174596;28;20029;-68
2023/09/02 01:06:13;;;;;;;4.75;2.75;;;18.70;99.90;;;;;;4173792;28;20044;-68
2023/09/02 01:08:18;;;;;;;3.55;2.55;;;18.70;99.90;;;;;;4164176;28;20404;-68
2023/09/02 01:10:19;;;;;;;3.30;2.47;;;18.70;99.90;;;;;;4169155;28;20032;-68
2023/09/02 01:12:20;;;;;;;4.88;2.92;;;18.70;99.90;;;;;;4162771;28;20046;-68
2023/09/02 01:14:22;;;;;;;2.95;2.38;;;18.70;99.90;;;;;;4163645;28;20045;-68
2023/09/02 01:16:23;;;;;;;3.13;2.20;;;18.80;99.90;;;;;;4174488;28;20551;-68
2023/09/02 01:18:24;;;;;;;5.75;2.97;;;18.80;99.90;;;;;;4172678;28;20139;-68
2023/09/02 01:20:32;;;;;;;2.95;2.33;;;18.80;99.90;;;;;;4174177;28;20040;-68
2023/09/02 01:22:48;;;;;;;2.58;2.10;;;18.80;99.90;;;;;;4174420;28;20033;-66
2023/09/02 01:25:17;;;;;;;2.53;2.20;;;18.80;99.90;;;;;;4175894;28;20041;-68
2023/09/02 01:27:28;;;;;;;2.97;2.20;;;18.80;99.90;;;;;;4168606;28;20116;-68
2023/09/02 01:29:34;;;;;;;4.03;2.45;;;18.70;99.90;;;;;;4169881;28;20434;-68
2023/09/02 01:31:36;;;;;;;2.92;2.35;;;18.70;99.90;;;;;;4168441;28;20060;-68
2023/09/02 01:33:37;;;;;;;4.97;2.53;;;18.70;99.90;;;;;;4174578;28;20037;-68
2023/09/02 01:35:39;;;;;;;3.95;2.50;;;18.70;99.90;;;;;;4174094;28;20507;-68
2023/09/02 01:37:45;;;;;;;2.67;2.22;;;18.60;99.90;;;;;;4171467;28;20104;-68
2023/09/02 01:39:47;;;;;;;5.55;2.35;;;18.60;99.90;;;;;;4175206;28;20040;-68
2023/09/02 01:41:50;;;;;;;3.83;2.72;;;18.60;99.90;;;;;;4173714;28;20037;-68
2023/09/02 01:43:53;;;;;;;3.72;2.70;;;18.50;99.90;;;;;;4175307;28;20059;-68
2023/09/02 01:45:53;;;;;;;3.65;2.22;;;18.50;99.90;;;;;;4171843;28;20053;-68
2023/09/02 01:47:55;;;;;;;4.78;2.38;;;18.50;99.90;;;;;;4169617;28;20049;-68
2023/09/02 01:49:56;;;;;;;4.35;2.38;;;18.50;99.90;;;;;;4170675;28;20108;-68
2023/09/02 01:51:57;;;;;;;3.50;2.38;;;18.40;99.90;;;;;;4178031;28;20049;-68
2023/09/02 01:53:58;;;;;;;5.35;2.22;;;18.50;99.90;;;;;;4178522;28;20037;-68
2023/09/02 01:55:59;;;;;;;3.67;2.50;;;18.40;99.90;;;;;;4173866;28;20095;-68
2023/09/02 01:58:01;;;;;;;4.35;2.78;;;18.40;99.90;;;;;;4173956;28;20033;-68
2023/09/02 02:00:01;;;;;;;3.88;2.38;;;18.40;99.90;;;;;;4178095;28;20429;-68
2023/09/02 02:02:02;;;;;;;5.03;2.92;;;18.40;99.90;;;;;;4177339;28;20086;-68
2023/09/02 02:04:22;;;;;;;5.18;2.28;;;18.40;99.90;;;;;;4178924;28;20027;-68
2023/09/02 02:06:23;;;;;;;4.75;2.83;;;18.40;99.90;;;;;;4176075;28;20033;-68
2023/09/02 02:08:31;;;;;;;6.13;2.97;;;18.30;99.90;;;;;;4178919;28;20419;-68
2023/09/02 02:10:34;;;;;;;4.05;2.70;;;18.30;99.90;;;;;;4176440;28;20469;-68
2023/09/02 02:12:35;;;;;;;6.35;2.67;;;18.30;99.90;;;;;;4178423;28;20052;-68
2023/09/02 02:14:36;;;;;;;3.80;2.70;;;18.30;99.90;;;;;;4178528;28;20041;-68
2023/09/02 02:16:36;;;;;;;6.18;2.50;;;18.30;99.90;;;;;;4172988;28;20041;-68
2023/09/02 02:18:37;;;;;;;4.10;2.72;;;18.20;99.90;;;;;;4174026;28;20041;-68
2023/09/02 02:21:10;;;;;;;3.42;2.42;;;18.20;99.90;;;;;;4176373;28;20040;-68
2023/09/02 02:23:10;;;;;;;3.47;2.53;;;18.20;99.90;;;;;;4161241;28;20056;-68
2023/09/02 02:25:11;;;;;;;3.40;2.47;;;18.20;99.90;;;;;;4175075;28;20036;-68
2023/09/02 02:27:13;;;;;;;4.65;2.45;;;18.20;99.90;;;;;;4177004;28;20388;-74
2023/09/02 02:29:13;;;;;;;4.17;3.00;;;18.20;99.90;;;;;;4168945;28;20473;-75
2023/09/02 02:31:14;;;;;;;4.03;2.70;;;18.10;99.90;;;;;;4167931;28;20084;-75
2023/09/02 02:33:15;;;;;;;2.97;2.35;;;18.10;99.90;;;;;;4178950;28;20033;-75
2023/09/02 02:35:21;;;;;;;3.90;2.65;;;18.10;99.90;;;;;;4177824;28;20029;-69
2023/09/02 02:37:21;;;;;;;5.45;2.38;;;18.10;99.90;;;;;;4163703;28;20533;-69
2023/09/02 02:39:22;;;;;;;3.88;2.58;;;18.10;99.90;;;;;;4178140;28;20029;-69
2023/09/02 02:41:23;;;;;;;3.60;2.38;;;18.10;99.90;;;;;;4171433;28;20036;-69
2023/09/02 02:43:25;;;;;;;4.28;2.50;;;18.00;99.90;;;;;;4173454;28;20033;-69
2023/09/02 02:45:26;;;;;;;3.00;2.40;;;18.00;99.90;;;;;;4167052;28;20044;-64
2023/09/02 02:47:26;;;;;;;5.70;2.58;;;18.10;99.90;;;;;;4168004;28;20408;-64
2023/09/02 02:49:27;;;;;;;3.38;2.38;;;18.00;99.90;;;;;;4175062;28;20037;-64
2023/09/02 02:51:27;;;;;;;4.03;2.63;;;18.00;99.90;;;;;;4173216;28;20401;-64
2023/09/02 02:53:28;;;;;;;5.05;2.95;;;18.00;99.90;;;;;;4173069;28;20037;-64
2023/09/02 02:55:29;;;;;;;5.60;2.70;;;18.00;99.90;;;;;;4172655;28;20037;-64
2023/09/02 02:57:29;;;;;;;5.15;2.90;;;18.00;99.90;;;;;;4174778;28;20040;-64
2023/09/02 02:59:30;;;;;;;7.00;3.20;;;17.90;99.90;;;;;;4172273;28;20033;-63
2023/09/02 03:01:31;;;;;;;4.63;2.90;;;17.90;99.90;;;;;;4174242;28;20040;-64
2023/09/02 03:03:32;;;;;;;5.88;2.85;;;17.90;99.90;;;;;;4178039;28;20057;-64
2023/09/02 03:05:40;;;;;;;3.95;2.50;;;17.90;99.90;;;;;;4176953;28;20033;-64
2023/09/02 03:07:40;;;;;;;3.22;2.63;;;17.90;99.90;;;;;;4178044;28;20036;-64
2023/09/02 03:09:41;;;;;;;3.75;2.58;;;17.90;99.90;;;;;;4174406;28;20145;-64
2023/09/02 03:11:42;;;;;;;5.55;3.00;;;17.80;99.90;;;;;;4172905;28;20049;-64
2023/09/02 03:13:42;;;;;;;3.90;2.42;;;17.80;99.90;;;;;;4177031;28;20124;-64
2023/09/02 03:15:50;;;;;;;3.72;2.65;;;17.80;99.90;;;;;;4176950;28;20033;-64
2023/09/02 03:17:50;;;;;;;4.70;2.92;;;17.80;99.90;;;;;;4173018;28;20037;-64
2023/09/02 03:19:51;;;;;;;5.55;3.13;;;17.80;99.90;;;;;;4177502;28;20037;-64
2023/09/02 03:21:52;;;;;;;5.00;2.90;;;17.80;99.90;;;;;;4176273;28;20049;-64
2023/09/02 03:23:52;;;;;;;5.97;2.88;;;17.80;99.90;;;;;;4171638;28;20226;-64
2023/09/02 03:25:53;;;;;;;3.92;2.65;;;17.80;99.90;;;;;;4176056;28;20044;-64
2023/09/02 03:27:53;;;;;;;2.97;2.45;;;17.80;99.90;;;;;;4178067;28;20115;-64
2023/09/02 03:29:55;;;;;;;5.10;3.13;;;17.80;99.90;;;;;;4170607;28;20321;-64
2023/09/02 03:31:56;;;;;;;4.00;2.50;;;17.80;99.90;;;;;;4175335;28;20412;-63
2023/09/02 03:33:57;;;;;;;4.15;2.83;;;17.80;99.90;;;;;;4169489;28;20040;-64
2023/09/02 03:35:57;;;;;;;4.00;2.83;;;17.80;99.90;;;;;;4176619;28;20044;-64
2023/09/02 03:37:58;;;;;;;6.60;3.20;;;17.80;99.90;;;;;;4177244;28;20036;-64
2023/09/02 03:39:58;;;;;;;4.07;2.80;;;17.70;99.90;;;;;;4176376;28;20037;-64
2023/09/02 03:42:01;;;;;;;4.97;2.85;;;17.70;99.90;;;;;;4167618;28;20107;-64
2023/09/02 03:44:03;;;;;;;3.35;2.65;;;17.70;99.90;;;;;;4177107;28;20068;-64
2023/09/02 03:46:04;;;;;;;4.32;3.03;;;17.70;99.90;;;;;;4174620;28;20528;-64
2023/09/02 03:48:04;;;;;;;3.97;2.80;;;17.60;99.90;;;;;;4168508;28;20052;-63
2023/09/02 03:50:06;;;;;;;4.97;3.22;;;17.70;99.90;;;;;;4175645;28;20052;-65
2023/09/02 03:52:06;;;;;;;6.22;3.45;;;17.70;99.90;;;;;;4176352;28;20041;-64
2023/09/02 03:54:07;;;;;;;4.07;2.78;;;17.60;99.90;;;;;;4177023;28;20028;-64
2023/09/02 03:56:08;;;;;;;4.60;3.13;;;17.60;99.90;;;;;;4174806;28;20480;-65
2023/09/02 03:58:08;;;;;;;5.00;3.38;;;17.60;99.90;;;;;;4177090;28;20033;-65
2023/09/02 04:00:09;;;;;;;4.70;3.15;;;17.50;99.90;;;;;;4174484;28;20029;-65
2023/09/02 04:02:10;;;;;;;5.28;3.33;;;17.50;99.90;;;;;;4137262;28;20032;-67
2023/09/02 04:04:11;;;;;;;5.78;3.42;;;17.50;99.90;;;;;;4113320;28;20424;-65
2023/09/02 04:06:11;;;;;;;5.05;3.38;;;17.50;99.90;;;;;;4173906;28;20033;-70
2023/09/02 04:08:12;;;;;;;6.25;4.05;;;17.50;99.90;;;;;;4177016;28;20037;-70
2023/09/02 04:10:13;;;;;;;5.97;3.90;;;17.50;99.90;;;;;;4168623;28;20370;-71
2023/09/02 04:12:13;;;;;;;4.28;3.70;;;17.40;99.90;;;;;;4177117;28;20045;-70
2023/09/02 04:14:14;;;;;;;5.72;4.03;;;17.40;99.90;;;;;;4165056;28;20068;-70
2023/09/02 04:16:14;;;;;;;8.95;3.15;;;17.30;99.90;;;;;;4169957;28;20037;-64
2023/09/02 04:18:15;;;;;;;4.88;2.95;;;17.40;99.90;;;;;;4169393;28;20068;-64
2023/09/02 04:20:16;;;;;;;3.72;3.17;;;17.30;99.90;;;;;;4171504;28;20037;-64
2023/09/02 04:22:16;;;;;;;4.68;3.08;;;17.30;99.90;;;;;;4173570;28;20041;-65
2023/09/02 04:24:17;;;;;;;5.53;3.10;;;17.30;99.90;;;;;;4174605;28;20056;-64
2023/09/02 04:26:19;;;;;;;3.65;2.75;;;17.30;99.90;;;;;;4173356;28;20396;-64
2023/09/02 04:28:20;;;;;;;4.65;2.90;;;17.30;99.90;;;;;;4174745;28;20044;-64
2023/09/02 04:30:24;;;;;;;3.63;2.90;;;17.30;99.90;;;;;;4175380;28;20033;-63
2023/09/02 04:32:24;;;;;;;3.63;2.65;;;17.30;99.90;;;;;;4174678;28;20045;-64
2023/09/02 04:34:26;;;;;;;3.75;2.53;;;17.30;99.90;;;;;;4167638;28;20090;-64
2023/09/02 04:36:26;;;;;;;3.85;2.88;;;17.40;99.90;;;;;;4175415;28;20037;-64
2023/09/02 04:38:27;;;;;;;4.07;2.80;;;17.40;99.90;;;;;;4174177;28;20124;-63
2023/09/02 04:40:28;;;;;;;5.78;3.25;;;17.40;99.90;;;;;;4165719;28;20227;-64
2023/09/02 04:42:28;;;;;;;4.40;3.15;;;17.40;99.90;;;;;;4170928;28;20302;-64
2023/09/02 04:44:29;;;;;;;3.25;2.85;;;17.40;99.90;;;;;;4171313;28;20477;-64
2023/09/02 04:46:30;;;;;;;3.67;2.95;;;17.40;99.90;;;;;;4166973;28;20051;-64
2023/09/02 04:48:30;;;;;;;4.93;2.83;;;17.40;99.90;;;;;;4169148;28;20053;-64
2023/09/02 04:50:32;;;;;;;3.38;2.45;;;17.40;99.90;;;;;;4170053;28;20034;-64
2023/09/02 04:52:33;;;;;;;3.60;2.70;;;17.40;99.90;;;;;;4170367;28;20056;-64
2023/09/02 04:54:33;;;;;;;5.25;3.05;;;17.40;99.90;;;;;;4171527;28;20411;-63
2023/09/02 04:56:34;;;;;;;5.43;3.33;;;17.50;99.90;;;;;;4170557;28;20049;-64
2023/09/02 04:58:34;;;;;;;6.75;3.58;;;17.40;99.90;;;;;;4170930;28;20033;-64
2023/09/02 05:00:35;;;;;;;4.15;2.70;;;17.50;99.90;;;;;;4168937;28;20151;-64
2023/09/02 05:02:36;;;;;;;3.78;2.95;;;17.50;99.90;;;;;;4171253;28;20049;-63
2023/09/02 05:04:36;;;;;;;3.78;2.97;;;17.50;99.90;;;;;;4170503;28;20029;-64
2023/09/02 05:06:37;;;;;;;3.88;3.20;;;17.50;99.90;;;;;;4167667;28;20041;-64
2023/09/02 05:08:37;;;;;;;8.55;3.40;;;17.50;99.90;;;;;;4170599;28;20061;-64
2023/09/02 05:10:38;;;;;;;4.25;3.05;;;17.50;99.90;;;;;;4169388;28;20495;-63
2023/09/02 05:12:39;;;;;;;5.90;3.50;;;17.50;99.90;;;;;;4172093;28;20132;-64
2023/09/02 05:14:39;;;;;;;4.03;2.75;;;17.50;99.90;;;;;;4173779;28;20075;-64
2023/09/02 05:16:40;;;;;;;4.72;2.78;;;17.50;99.90;;;;;;4168462;28;20060;-64
2023/09/02 05:18:40;;;;;;;3.47;2.65;;;17.50;99.90;;;;;;4168947;28;20108;-64
2023/09/02 05:20:41;;;;;;;4.05;3.28;;;17.50;99.90;;;;;;4171285;28;20071;-63
2023/09/02 05:22:42;;;;;;;4.32;2.88;;;17.40;99.90;;;;;;4167381;28;20036;-64
2023/09/02 05:24:42;;;;;;;4.50;3.30;;;17.40;99.90;;;;;;4172084;28;20440;-69
2023/09/02 05:26:43;;;;;;;5.00;3.03;;;17.40;99.90;;;;;;4165344;28;20543;-66
2023/09/02 05:28:44;;;;;;;4.40;3.00;;;17.40;99.90;;;;;;4169197;28;20065;-66
2023/09/02 05:30:45;;;;;;;4.55;3.25;;;17.40;99.90;;;;;;4166802;28;20069;-66
2023/09/02 05:32:45;;;;;;;3.05;2.20;;;17.40;99.90;;;;;;4168367;28;20045;-66
2023/09/02 05:34:49;;;;;;;3.45;2.47;;;17.40;99.90;;;;;;4171305;28;20037;-66
2023/09/02 05:36:50;;;;;;;2.70;2.20;;;17.40;99.90;;;;;;4166386;28;20493;-66
2023/09/02 05:38:50;;;;;;;2.92;2.40;;;17.40;99.90;;;;;;4169384;28;20032;-66
2023/09/02 05:40:52;;;;;;;3.33;2.28;;;17.50;99.90;;;;;;4170823;28;20052;-65
2023/09/02 05:42:52;;;;;;;2.78;2.30;;;17.50;99.90;;;;;;4171693;28;20043;-66
2023/09/02 05:44:53;;;;;;;4.20;2.97;;;17.50;99.90;;;;;;4167582;28;20536;-66
2023/09/02 05:46:53;;;;;;;3.67;2.42;;;17.50;99.90;;;;;;4169642;28;20038;-66
2023/09/02 05:48:54;;;;;;;2.60;2.15;;;17.50;99.90;;;;;;4170188;28;20063;-66
2023/09/02 05:50:58;;;;;;;3.53;2.40;;;17.60;99.90;;;;;;4169547;28;20048;-66
2023/09/02 05:52:59;;;;;;;4.03;2.65;;;17.60;99.90;;;;;;4171470;28;20029;-66
2023/09/02 05:55:00;;;;;;;3.58;2.70;;;17.60;99.90;;;;;;4170226;28;20037;-66
2023/09/02 05:57:00;;;;;;;3.80;2.38;;;17.60;99.90;;;;;;4173311;28;20433;-66
2023/09/02 05:59:02;;;;;;;2.92;2.53;;;17.70;99.90;;;;;;4171219;28;20041;-66
2023/09/02 06:01:04;;;;;;;3.90;2.58;;;17.70;99.90;;;;;;4162833;28;20036;-66
2023/09/02 06:03:04;;;;;;;4.13;2.90;;;17.70;99.90;;;;;;4166438;28;20040;-67
2023/09/02 06:05:05;;;;;;;4.43;2.67;;;17.70;99.90;;;;;;4168298;28;20469;-66
2023/09/02 06:07:06;;;;;;;4.05;2.80;;;17.70;99.90;;;;;;4171819;28;20033;-67
2023/09/02 06:09:08;;;;;;;4.32;3.03;;;17.70;99.90;;;;;;4169947;28;20049;-67
2023/09/02 06:11:09;;;;;;;3.40;2.72;;;17.70;99.90;;;;;;4173272;28;20405;-67
2023/09/02 06:13:09;;;;;;;4.40;3.13;;;17.60;99.90;;;;;;4164925;28;20041;-67
2023/09/02 06:15:10;;;;;;;4.75;3.40;;;17.60;99.90;;;;;;4167613;28;20095;-67
2023/09/02 06:17:11;;;;;;;7.13;3.35;;;17.60;99.90;;;;;;4170825;28;20639;-67
2023/09/02 06:19:11;;;;;;;5.22;3.58;;;17.60;99.90;;;;;;4168862;28;20063;-67
2023/09/02 06:21:13;;;;;;;4.13;3.40;;;17.70;99.90;;;;;;4169086;28;20033;-67
2023/09/02 06:23:14;;;;;;;4.40;3.37;;;17.70;99.90;;;;;;4172197;28;20069;-67
2023/09/02 06:25:14;;;;;;;5.60;3.70;;;17.60;99.90;;;;;;4168299;28;20037;-67
2023/09/02 06:27:15;;;;;;;8.45;4.35;;;17.60;99.90;;;;;;4170140;28;20035;-67
2023/09/02 06:29:16;;;;;;;4.80;3.30;;;17.60;99.90;;;;;;4167668;28;20084;-67
2023/09/02 06:31:16;;;;;;;5.60;3.80;;;17.60;99.90;;;;;;4166923;28;20049;-67
2023/09/02 06:33:21;;;;;;;4.10;3.33;;;17.60;99.90;;;;;;4168934;28;20037;-66
2023/09/02 06:35:22;;;;;;;3.78;2.72;;;17.60;99.90;;;;;;4169603;28;20056;-67
2023/09/02 06:37:23;;;;;;;4.20;2.90;;;17.70;99.90;;;;;;4174052;28;20048;-67
2023/09/02 06:39:23;;;;;;;4.03;3.20;;;17.70;99.90;;;;;;4171944;28;20098;-67
2023/09/02 06:41:24;;;;;;;4.57;3.58;;;17.70;99.90;;;;;;4171584;28;20042;-67
2023/09/02 06:43:24;;;;;;;4.72;3.45;;;17.80;99.90;;;;;;4172731;28;20029;-67
2023/09/02 06:45:26;;;;;;;3.78;3.15;;;17.80;99.90;;;;;;4168502;28;20485;-67
2023/09/02 06:47:26;;;;;;;4.63;3.80;;;17.80;99.90;;;;;;4173058;28;20105;-68
2023/09/02 06:49:30;;;;;;;4.70;3.40;;;17.80;99.90;;;;;;4170073;28;20045;-67
2023/09/02 06:51:30;;;;;;;4.45;3.03;;;17.80;99.90;;;;;;4172579;28;20045;-67
2023/09/02 06:53:31;;;;;;;3.58;3.25;;;17.90;99.90;;;;;;4170098;28;20433;-68
2023/09/02 06:55:32;;;;;;;3.95;3.15;;;17.90;99.90;;;;;;4174736;28;20477;-68
2023/09/02 06:57:32;;;;;;;4.40;2.95;;;17.90;99.90;;;;;;4169619;28;20034;-68
2023/09/02 06:59:34;;;;;;;3.97;3.10;;;17.90;99.90;;;;;;4170530;28;20037;-68
2023/09/02 07:01:34;;;;;;;4.47;3.58;;;18.00;99.90;;;;;;4172035;28;20045;-67
2023/09/02 07:03:35;;;;;;;4.20;3.35;;;18.00;99.90;;;;;;4172596;28;20028;-67
2023/09/02 07:05:35;;;;;;;4.22;2.97;;;18.10;99.90;;;;;;4173735;28;20560;-66
2023/09/02 07:07:37;;;;;;;4.07;3.03;;;18.10;99.90;;;;;;4176234;28;20117;-67
2023/09/02 07:09:38;;;;;;;3.60;2.85;;;18.10;99.90;;;;;;4168989;28;20042;-67
2023/09/02 07:11:39;;;;;;;3.53;3.00;;;18.10;99.90;;;;;;4170024;28;20104;-68
2023/09/02 07:13:39;;;;;;;4.30;3.10;;;18.20;99.90;;;;;;4171531;28;20029;-67
2023/09/02 07:15:40;;;;;;;2.92;2.58;;;18.20;99.90;;;;;;4170539;28;20572;-70
2023/09/02 07:17:41;;;;;;;3.60;2.90;;;18.30;99.90;;;;;;4177282;28;20043;-67
2023/09/02 07:19:42;;;;;;;6.28;3.47;;;18.30;99.90;;;;;;4170649;28;20032;-67
2023/09/02 07:21:42;;;;;;;3.80;2.95;;;18.40;99.90;;;;;;4173096;28;20036;-68
2023/09/02 07:23:43;;;;;;;4.25;3.47;;;18.40;99.90;;;;;;4175695;28;20041;-68
2023/09/02 07:25:43;;;;;;;5.18;3.63;;;18.40;99.90;;;;;;4171566;28;20046;-67
2023/09/02 07:27:44;;;;;;;3.58;2.80;;;18.40;99.90;;;;;;4173315;28;20039;-68
2023/09/02 07:29:45;;;;;;;6.00;3.30;;;18.50;99.90;;;;;;4169232;28;20040;-67
2023/09/02 07:31:46;;;;;;;3.63;2.67;;;18.50;99.90;;;;;;4171516;28;20044;-68
2023/09/02 07:33:46;;;;;;;3.70;2.50;;;18.60;99.90;;;;;;4169409;28;20496;-67
2023/09/02 07:35:47;;;;;;;2.72;2.15;;;18.60;99.90;;;;;;4169136;28;20037;-67
2023/09/02 07:37:47;;;;;;;4.97;2.50;;;18.70;99.90;;;;;;4172427;28;20041;-68
2023/09/02 07:39:48;;;;;;;3.25;2.55;;;18.70;99.90;;;;;;4173426;28;20044;-68
2023/09/02 07:41:50;;;;;;;2.78;2.38;;;18.70;99.90;;;;;;4171038;28;20041;-68
2023/09/02 07:43:50;;;;;;;3.50;2.72;;;18.80;99.90;;;;;;4167314;28;20091;-68
2023/09/02 07:45:51;;;;;;;3.33;2.60;;;18.80;99.90;;;;;;4169946;28;20037;-68
2023/09/02 07:47:53;;;;;;;4.10;2.35;;;18.80;99.90;;;;;;4165924;28;20505;-67
2023/09/02 07:49:55;;;;;;;2.92;2.58;;;18.80;99.90;;;;;;4164962;28;20050;-67
2023/09/02 07:51:55;;;;;;;2.85;2.13;;;18.90;99.90;;;;;;4170696;28;20033;-68
2023/09/02 07:53:56;;;;;;;2.58;2.22;;;18.90;99.90;;;;;;4169614;28;20143;-68
2023/09/02 07:55:57;;;;;;;4.28;2.47;;;18.90;99.90;;;;;;4164456;28;20350;-67
2023/09/02 07:57:59;;;;;;;5.10;2.83;;;18.90;99.90;;;;;;4175619;28;20182;-68
2023/09/02 08:00:00;;;;;;;;;;;19.00;99.90;;;;;;4176053;28;20359;-68
2023/09/02 08:02:01;;;;;;;3.75;1.85;;;18.90;99.90;;;;;;4172083;28;20019;-68
2023/09/02 08:04:01;;;;;;;2.63;2.05;;;19.00;99.90;;;;;;4172667;28;20120;-68
2023/09/02 08:06:09;;;;;;;2.53;2.22;;;19.00;99.90;;;;;;4170206;28;20037;-68
2023/09/02 08:08:09;;;;;;;2.50;2.30;;;19.10;99.90;;;;;;4165941;28;20036;-68
2023/09/02 08:10:10;;;;;;;4.43;2.90;;;19.10;99.90;;;;;;4168812;28;20033;-68
2023/09/02 08:12:11;;;;;;;4.75;2.85;;;19.10;99.90;;;;;;4171891;28;20055;-67
2023/09/02 08:14:12;;;;;;;3.10;2.20;;;19.10;99.90;;;;;;4175539;28;20496;-67
2023/09/02 08:16:12;;;;;;;4.05;2.53;;;19.20;99.90;;;;;;4175364;28;20041;-67
2023/09/02 08:18:13;;;;;;;4.00;2.25;;;19.20;99.90;;;;;;4173897;28;20036;-67
2023/09/02 08:20:14;;;;;;;2.78;2.17;;;19.20;99.90;;;;;;4172537;28;20068;-67
2023/09/02 08:22:14;;;;;;;2.70;1.88;;;19.30;99.90;;;;;;4174010;28;20060;-67
2023/09/02 08:24:15;;;;;;;2.55;2.25;;;19.40;99.90;;;;;;4176966;28;20044;-67
2023/09/02 08:26:16;;;;;;;3.78;2.28;;;19.40;99.90;;;;;;4175413;28;20060;-68
2023/09/02 08:28:16;;;;;;;3.50;2.42;;;19.50;99.90;;;;;;4176295;28;20064;-67
2023/09/02 08:30:17;;;;;;;3.85;2.72;;;19.50;99.90;;;;;;4172586;28;20039;-68
2023/09/02 08:32:17;;;;;;;3.22;2.38;;;19.50;99.90;;;;;;4169763;28;20041;-68
2023/09/02 08:34:18;;;;;;;4.28;2.63;;;19.60;99.90;;;;;;4174130;28;20028;-68
2023/09/02 08:36:19;;;;;;;4.07;2.25;;;19.60;99.90;;;;;;4167021;28;20508;-68
2023/09/02 08:38:19;;;;;;;3.95;2.67;;;19.70;99.90;;;;;;4161349;28;20041;-68
2023/09/02 08:40:20;;;;;;;5.00;2.75;;;19.70;99.90;;;;;;4171214;28;20033;-67
2023/09/02 08:42:21;;;;;;;2.90;2.20;;;19.70;99.90;;;;;;4169156;28;20033;-68
2023/09/02 08:44:27;;;;;;;3.20;2.10;;;19.80;99.90;;;;;;4167695;28;20033;-68
2023/09/02 08:46:30;;;;;;;3.92;2.20;;;19.90;99.90;;;;;;4174934;28;20037;-68
2023/09/02 08:48:34;;;;;;;2.90;2.13;;;20.00;99.90;;;;;;4168981;28;20052;-67
2023/09/02 08:50:35;;;;;;;2.95;2.08;;;20.00;99.90;;;;;;4172163;28;20037;-67
2023/09/02 08:52:37;;;;;;;3.53;2.10;;;20.10;99.90;;;;;;4176483;28;20489;-68
2023/09/02 08:54:39;;;;;;;4.93;2.13;;;20.20;99.90;;;;;;4183203;28;20032;-68
2023/09/02 08:56:41;;;;;;;3.30;2.13;;;20.20;99.90;;;;;;4168294;28;20041;-62
2023/09/02 08:58:43;;;;;;;3.95;2.17;;;20.20;99.90;;;;;;4163963;28;20036;-62
2023/09/02 09:00:46;;;;;;;2.73;1.80;;;20.30;99.90;;;;;;4171993;28;20063;-62
2023/09/02 09:02:46;;;;;;;3.13;1.95;;;20.40;99.90;;;;;;4166762;28;20067;-62
2023/09/02 09:04:52;;;;;;;2.58;1.77;;;20.40;99.90;;;;;;4171283;28;20033;-62
2023/09/02 09:06:53;;;;;;;3.28;1.75;;;20.50;99.90;;;;;;4168532;28;20064;-62
2023/09/02 09:08:55;;;;;;;2.47;1.90;;;20.50;99.90;;;;;;4157490;28;20392;-64
2023/09/02 09:10:56;;;;;;;2.65;1.83;;;20.60;99.90;;;;;;4174171;28;20528;-62
2023/09/02 09:12:57;;;;;;;2.65;1.90;;;20.70;99.90;;;;;;4166043;28;20072;-62
2023/09/02 09:15:01;;;;;;;2.42;1.60;;;20.70;99.90;;;;;;4168858;28;20052;-62
2023/09/02 09:17:03;;;;;;;2.03;1.83;;;20.80;99.90;;;;;;4168802;28;20035;-62
2023/09/02 09:19:03;;;;;;;2.13;1.67;;;20.80;99.90;;;;;;4169404;28;20033;-62
2023/09/02 09:21:04;;;;;;;1.70;1.60;;;20.90;99.90;;;;;;4187882;28;20036;-62
2023/09/02 09:23:08;;;;;;;5.38;1.90;;;21.00;99.90;;;;;;4168890;28;20116;-62
2023/09/02 09:25:11;;;;;;;3.22;1.70;;;21.00;99.90;;;;;;4173835;28;20029;-63
2023/09/02 09:27:12;;;;;;;2.53;1.77;;;21.10;99.90;;;;;;4175524;28;20556;-67
2023/09/02 09:29:14;;;;;;;2.22;1.80;;;21.20;99.90;;;;;;4171207;28;20108;-62
2023/09/02 09:31:15;;;;;;;2.17;1.65;;;21.20;99.90;;;;;;4165908;28;20104;-62
2023/09/02 09:33:18;;;;;;;2.83;1.70;;;21.20;99.90;;;;;;4173403;28;20029;-62
2023/09/02 09:35:22;;;;;;;5.53;2.78;;;21.30;99.90;;;;;;4174628;28;20062;-62
2023/09/02 09:37:22;;;;;;;3.38;2.30;;;21.40;99.90;;;;;;4168578;28;20037;-62
2023/09/02 09:39:38;;;;;;;3.63;1.98;;;21.50;99.90;;;;;;4168074;28;20037;-62
2023/09/02 09:41:46;;;;;;;2.47;1.90;;;21.40;99.90;;;;;;4178816;28;20116;-62
2023/09/02 09:44:06;;;;;;;3.00;2.45;;;21.40;99.90;;;;;;4171057;28;20124;-62
2023/09/02 09:46:07;;;;;;;3.05;2.20;;;21.50;99.90;;;;;;4169027;28;20511;-62
2023/09/02 09:48:10;;;;;;;2.28;1.83;;;21.50;99.90;;;;;;4170291;28;20033;-62
2023/09/02 09:50:15;;;;;;;3.92;1.95;;;21.50;99.90;;;;;;4167317;28;20041;-65
2023/09/02 09:52:18;;;;;;;2.15;1.60;;;21.50;99.90;;;;;;4170998;28;20091;-62
2023/09/02 09:54:24;;;;;;;1.80;1.42;;;21.50;99.90;;;;;;4164136;28;20042;-62
2023/09/02 09:56:25;;;;;;;2.83;1.95;;;21.60;99.90;;;;;;4172503;28;20037;-62
2023/09/02 09:58:26;;;;;;;2.13;1.42;;;21.60;99.90;;;;;;4174388;28;20393;-62
2023/09/02 10:00:28;;;;;;;3.92;2.05;;;21.70;99.90;;;;;;4168665;28;20033;-62
2023/09/02 10:02:29;;;;;;;1.95;1.73;;;21.70;99.90;;;;;;4169947;28;20057;-62
2023/09/02 10:04:31;;;;;;;1.52;1.38;;;21.70;99.90;;;;;;4170603;28;20064;-62
2023/09/02 10:06:37;;;;;;;2.22;1.70;;;21.70;99.90;;;;;;4167978;28;20465;-63
2023/09/02 10:08:54;;;;;;;1.88;1.60;;;21.80;99.90;;;;;;4173033;28;20037;-62
2023/09/02 10:10:54;;;;;;;2.00;1.75;;;21.80;99.90;;;;;;4172772;28;20401;-62
2023/09/02 10:12:57;;;;;;;2.75;1.80;;;21.80;99.90;;;;;;4174218;28;20041;-62
2023/09/02 10:14:58;;;;;;;2.70;2.08;;;21.80;99.90;;;;;;4175390;28;20036;-62
2023/09/02 10:16:59;;;;;;;2.97;1.98;;;21.80;99.90;;;;;;4170291;28;20413;-62
2023/09/02 10:19:03;;;;;;;3.95;2.35;;;21.80;99.90;;;;;;4175695;28;20048;-62
2023/09/02 10:21:03;;;;;;;2.67;1.98;;;21.70;99.90;;;;;;4172277;28;20091;-62
2023/09/02 10:23:08;;;;;;;2.38;1.67;;;21.80;99.90;;;;;;4175661;28;20400;-62
2023/09/02 10:25:29;;;;;;;2.30;1.80;;;21.80;99.90;;;;;;4175785;28;20978;-62
2023/09/02 10:27:36;;;;;;;3.95;1.90;;;21.90;99.90;;;;;;4175527;28;20057;-62
2023/09/02 10:29:43;;;;;;;2.33;1.70;;;21.90;99.90;;;;;;4175345;28;20029;-62
2023/09/02 10:31:48;;;;;;;3.15;1.80;;;21.90;99.90;;;;;;4175003;28;20048;-62
2023/09/02 10:34:07;;;;;;;3.75;1.80;;;22.00;99.90;;;;;;4176738;28;20047;-63
2023/09/02 10:36:09;;;;;;;3.80;1.90;;;22.10;99.90;;;;;;4173474;28;20033;-62